createdAt,value
2022-12-31T00:01:00.399Z,16.91
2022-12-31T00:03:27.094Z,16.91
2022-12-31T00:05:53.791Z,16.94
2022-12-31T00:08:20.396Z,16.88
2022-12-31T00:10:47.160Z,16.94
2022-12-31T00:13:13.777Z,16.96
2022-12-31T00:15:41.398Z,16.94
2022-12-31T00:18:08.448Z,16.96
2022-12-31T00:20:34.998Z,16.96
2022-12-31T00:23:01.743Z,16.96
2022-12-31T00:25:28.322Z,16.93
2022-12-31T00:27:55.871Z,16.99
2022-12-31T00:30:22.425Z,16.95
2022-12-31T00:32:48.985Z,17.01
2022-12-31T00:35:15.550Z,17.02
2022-12-31T00:37:42.138Z,17.07
2022-12-31T00:40:09.170Z,16.96
2022-12-31T00:42:35.761Z,17.02
2022-12-31T00:45:02.326Z,16.97
2022-12-31T00:47:28.962Z,17.00
2022-12-31T00:49:55.491Z,17.00
2022-12-31T00:52:22.142Z,16.96
2022-12-31T00:54:48.725Z,16.99
2022-12-31T00:57:15.404Z,16.91
2022-12-31T00:59:41.944Z,16.85
2022-12-31T01:02:08.775Z,16.85
2022-12-31T01:04:35.456Z,16.89
2022-12-31T01:07:02.104Z,16.87
2022-12-31T01:09:28.664Z,16.84
2022-12-31T01:11:55.320Z,16.77
2022-12-31T01:14:21.958Z,16.70
2022-12-31T01:16:50.146Z,16.72
2022-12-31T01:19:18.330Z,16.75
2022-12-31T01:21:45.874Z,16.75
2022-12-31T01:24:12.777Z,16.75
2022-12-31T01:26:39.902Z,16.68
2022-12-31T01:29:07.056Z,16.68
2022-12-31T01:31:34.509Z,16.62
2022-12-31T01:34:01.233Z,16.65
2022-12-31T01:36:29.102Z,16.56
2022-12-31T01:38:56.389Z,16.55
2022-12-31T01:41:24.876Z,16.63
2022-12-31T01:43:54.538Z,16.74
2022-12-31T01:46:34.658Z,16.78
2022-12-31T01:49:13.489Z,16.88
2022-12-31T01:51:41.555Z,16.92
2022-12-31T01:54:09.364Z,16.98
2022-12-31T01:56:36.760Z,16.99
2022-12-31T01:59:06.556Z,17.06
2022-12-31T02:01:33.621Z,17.08
2022-12-31T02:04:02.416Z,17.08
2022-12-31T02:06:31.230Z,17.10
2022-12-31T02:08:58.382Z,17.07
2022-12-31T02:11:29.548Z,17.10
2022-12-31T02:13:58.950Z,17.10
2022-12-31T02:16:30.127Z,17.07
2022-12-31T02:19:00.400Z,17.01
2022-12-31T02:21:36.143Z,16.91
2022-12-31T02:24:21.587Z,16.81
2022-12-31T02:26:57.041Z,16.82
2022-12-31T02:29:48.198Z,16.85
2022-12-31T02:32:21.566Z,16.86
2022-12-31T02:34:52.598Z,16.82
2022-12-31T02:37:20.622Z,16.74
2022-12-31T02:39:47.550Z,16.69
2022-12-31T02:42:14.112Z,16.59
2022-12-31T02:44:41.984Z,16.52
2022-12-31T02:47:08.576Z,16.57
2022-12-31T02:49:47.181Z,16.43
2022-12-31T02:52:16.580Z,16.45
2022-12-31T02:54:58.906Z,16.40
2022-12-31T02:57:30.801Z,16.38
2022-12-31T03:00:17.795Z,16.38
2022-12-31T03:02:46.044Z,16.22
2022-12-31T03:05:13.832Z,16.22
2022-12-31T03:07:41.451Z,16.23
2022-12-31T03:10:08.271Z,16.29
2022-12-31T03:12:47.770Z,16.26
2022-12-31T03:15:24.835Z,16.30
2022-12-31T03:17:53.383Z,16.29
2022-12-31T03:20:39.128Z,16.28
2022-12-31T03:23:07.139Z,16.27
2022-12-31T03:25:34.675Z,16.25
2022-12-31T03:28:11.949Z,16.29
2022-12-31T03:30:39.791Z,16.29
2022-12-31T03:33:07.055Z,16.25
2022-12-31T03:35:34.829Z,16.27
2022-12-31T03:38:02.117Z,16.19
2022-12-31T03:40:29.364Z,16.13
2022-12-31T03:42:56.116Z,16.12
2022-12-31T03:45:22.895Z,16.14
2022-12-31T03:47:49.630Z,16.10
2022-12-31T03:50:17.327Z,16.00
2022-12-31T03:52:44.197Z,16.02
2022-12-31T03:55:11.232Z,16.07
2022-12-31T03:57:38.405Z,16.15
2022-12-31T04:00:06.448Z,16.20
2022-12-31T04:02:33.891Z,16.24
2022-12-31T04:05:00.802Z,16.31
2022-12-31T04:07:27.525Z,16.28
2022-12-31T04:09:54.168Z,16.19
2022-12-31T04:12:20.742Z,16.19
2022-12-31T04:14:47.351Z,16.22
2022-12-31T04:17:13.934Z,16.18
2022-12-31T04:19:40.537Z,16.20
2022-12-31T04:22:07.264Z,16.21
2022-12-31T04:24:34.146Z,16.14
2022-12-31T04:27:07.302Z,16.15
2022-12-31T04:29:34.786Z,16.15
2022-12-31T04:32:01.548Z,16.14
2022-12-31T04:34:28.261Z,16.14
2022-12-31T04:36:54.912Z,16.15
2022-12-31T04:39:21.765Z,16.18
2022-12-31T04:41:49.393Z,16.14
2022-12-31T04:44:16.046Z,16.15
2022-12-31T04:46:42.890Z,16.13
2022-12-31T04:49:10.118Z,16.09
2022-12-31T04:51:36.798Z,16.08
2022-12-31T04:54:03.638Z,16.13
2022-12-31T04:56:30.573Z,16.18
2022-12-31T04:58:57.166Z,16.20
2022-12-31T05:01:23.909Z,16.24
2022-12-31T05:03:51.418Z,16.29
2022-12-31T05:06:19.947Z,16.27
2022-12-31T05:08:46.957Z,16.37
2022-12-31T05:11:13.617Z,16.38
2022-12-31T05:13:40.310Z,16.40
2022-12-31T05:16:07.637Z,16.45
2022-12-31T05:18:34.258Z,16.41
2022-12-31T05:21:00.836Z,16.40
2022-12-31T05:23:28.033Z,16.32
2022-12-31T05:25:54.659Z,16.33
2022-12-31T05:28:21.578Z,16.37
2022-12-31T05:30:49.053Z,16.44
2022-12-31T05:33:15.788Z,16.44
2022-12-31T05:35:42.353Z,16.47
2022-12-31T05:38:09.011Z,16.46
2022-12-31T05:40:35.636Z,16.45
2022-12-31T05:43:02.285Z,16.47
2022-12-31T05:45:31.125Z,16.53
2022-12-31T05:47:58.465Z,16.56
2022-12-31T05:50:25.221Z,16.56
2022-12-31T05:52:55.859Z,16.57
2022-12-31T05:55:22.546Z,16.60
2022-12-31T05:57:49.186Z,16.59
2022-12-31T06:00:16.008Z,16.60
2022-12-31T06:02:42.624Z,16.59
2022-12-31T06:05:09.327Z,16.60
2022-12-31T06:07:35.926Z,16.61
2022-12-31T06:10:04.524Z,16.62
2022-12-31T06:12:31.094Z,16.58
2022-12-31T06:14:57.720Z,16.58
2022-12-31T06:17:24.640Z,16.57
2022-12-31T06:19:51.152Z,16.58
2022-12-31T06:22:17.889Z,16.58
2022-12-31T06:24:44.472Z,16.57
2022-12-31T06:27:11.399Z,16.58
2022-12-31T06:29:38.046Z,16.58
2022-12-31T06:32:04.843Z,16.63
2022-12-31T06:34:31.541Z,16.62
2022-12-31T06:36:59.140Z,16.59
2022-12-31T06:39:25.815Z,16.61
2022-12-31T06:41:52.426Z,16.65
2022-12-31T06:44:19.087Z,16.66
2022-12-31T06:46:45.816Z,16.59
2022-12-31T06:49:12.555Z,16.53
2022-12-31T06:51:39.247Z,16.58
2022-12-31T06:54:05.910Z,16.55
2022-12-31T06:56:34.804Z,16.54
2022-12-31T06:59:02.631Z,16.54
2022-12-31T07:01:47.846Z,16.54
2022-12-31T07:04:17.625Z,16.52
2022-12-31T07:06:48.734Z,16.57
2022-12-31T07:09:18.190Z,16.60
2022-12-31T07:11:56.704Z,16.57
2022-12-31T07:14:33.008Z,16.57
2022-12-31T07:17:17.608Z,16.54
2022-12-31T07:19:59.953Z,16.52
2022-12-31T07:22:26.717Z,16.33
2022-12-31T07:24:53.436Z,16.32
2022-12-31T07:27:35.358Z,16.36
2022-12-31T07:30:13.021Z,16.37
2022-12-31T07:32:42.510Z,16.37
2022-12-31T07:35:33.045Z,16.37
2022-12-31T07:38:01.768Z,16.39
2022-12-31T07:40:34.557Z,16.33
2022-12-31T07:43:03.945Z,16.33
2022-12-31T07:45:30.469Z,16.36
2022-12-31T07:48:02.279Z,16.36
2022-12-31T07:50:29.715Z,16.32
2022-12-31T07:52:56.378Z,16.24
2022-12-31T07:55:22.962Z,16.27
2022-12-31T07:57:58.692Z,16.30
2022-12-31T08:00:26.047Z,16.31
2022-12-31T08:02:59.641Z,16.33
2022-12-31T08:05:26.241Z,16.38
2022-12-31T08:07:55.882Z,16.44
2022-12-31T08:10:28.016Z,16.48
2022-12-31T08:13:01.778Z,16.52
2022-12-31T08:15:30.597Z,16.60
2022-12-31T08:17:57.679Z,16.59
2022-12-31T08:20:25.448Z,16.64
2022-12-31T08:23:12.369Z,16.60
2022-12-31T08:25:42.114Z,16.74
2022-12-31T08:28:38.200Z,16.76
2022-12-31T08:31:12.039Z,16.91
2022-12-31T08:33:48.793Z,16.96
2022-12-31T08:36:32.891Z,16.97
2022-12-31T08:39:08.488Z,17.06
2022-12-31T08:41:44.081Z,17.16
2022-12-31T08:44:19.587Z,17.22
2022-12-31T08:46:54.521Z,17.26
2022-12-31T08:49:21.264Z,17.34
2022-12-31T08:51:47.977Z,17.35
2022-12-31T08:54:14.743Z,17.44
2022-12-31T08:56:44.764Z,17.44
2022-12-31T08:59:22.949Z,17.56
2022-12-31T09:02:01.580Z,17.59
2022-12-31T09:04:34.179Z,17.69
2022-12-31T09:07:02.334Z,17.51
2022-12-31T09:09:28.911Z,17.65
2022-12-31T09:12:13.985Z,17.75
2022-12-31T09:14:43.155Z,17.85
2022-12-31T09:17:29.976Z,17.89
2022-12-31T09:19:56.742Z,17.94
2022-12-31T09:22:23.556Z,17.97
2022-12-31T09:24:50.363Z,18.08
2022-12-31T09:27:28.014Z,18.09
2022-12-31T09:30:00.899Z,18.14
2022-12-31T09:32:41.732Z,18.27
2022-12-31T09:35:21.563Z,18.40
2022-12-31T09:37:49.616Z,18.51
2022-12-31T09:40:16.255Z,18.54
2022-12-31T09:42:48.601Z,18.66
2022-12-31T09:45:24.115Z,18.72
2022-12-31T09:48:07.558Z,18.82
2022-12-31T09:50:34.100Z,18.92
2022-12-31T09:53:19.469Z,19.03
2022-12-31T09:55:49.121Z,19.14
2022-12-31T09:58:24.887Z,19.25
2022-12-31T10:01:10.215Z,19.37
2022-12-31T10:03:39.904Z,19.45
2022-12-31T10:06:27.784Z,19.57
2022-12-31T10:08:54.360Z,19.72
2022-12-31T10:11:26.673Z,19.77
2022-12-31T10:14:05.510Z,19.89
2022-12-31T10:16:32.148Z,19.98
2022-12-31T10:19:04.940Z,20.07
2022-12-31T10:21:31.484Z,20.15
2022-12-31T10:24:16.739Z,20.20
2022-12-31T10:26:59.409Z,20.26
2022-12-31T10:29:54.911Z,20.35
2022-12-31T10:32:31.554Z,20.44
2022-12-31T10:35:12.781Z,20.52
2022-12-31T10:37:59.668Z,20.61
2022-12-31T10:40:29.418Z,20.69
2022-12-31T10:43:04.803Z,20.77
2022-12-31T10:45:31.365Z,20.85
2022-12-31T10:48:13.258Z,20.94
2022-12-31T10:50:48.758Z,20.86
2022-12-31T10:53:25.099Z,20.94
2022-12-31T10:55:57.602Z,20.98
2022-12-31T10:58:42.828Z,20.88
2022-12-31T11:01:27.914Z,20.86
2022-12-31T11:04:00.610Z,20.95
2022-12-31T11:06:30.227Z,21.01
2022-12-31T11:09:15.295Z,21.14
2022-12-31T11:11:51.041Z,21.16
2022-12-31T11:14:19.493Z,21.19
2022-12-31T11:16:52.122Z,21.21
2022-12-31T11:19:27.594Z,21.28
2022-12-31T11:22:00.485Z,21.37
2022-12-31T11:24:27.099Z,21.47
2022-12-31T11:27:09.099Z,21.53
2022-12-31T11:29:43.586Z,21.52
2022-12-31T11:32:13.188Z,21.56
2022-12-31T11:34:48.520Z,21.52
2022-12-31T11:37:33.680Z,21.52
2022-12-31T11:40:00.275Z,21.55
2022-12-31T11:42:29.834Z,21.57
2022-12-31T11:45:15.056Z,21.58
2022-12-31T11:48:20.174Z,21.62
2022-12-31T11:50:28.221Z,21.68
2022-12-31T11:53:14.453Z,21.71
2022-12-31T11:55:50.229Z,21.70
2022-12-31T11:58:20.763Z,21.73
2022-12-31T12:00:54.376Z,21.75
2022-12-31T12:03:21.260Z,21.78
2022-12-31T12:05:47.809Z,21.83
2022-12-31T12:08:14.579Z,21.83
2022-12-31T12:10:44.270Z,21.90
2022-12-31T12:13:12.740Z,21.94
2022-12-31T12:15:40.297Z,22.01
2022-12-31T12:18:09.149Z,22.06
2022-12-31T12:20:36.935Z,22.10
2022-12-31T12:23:13.603Z,22.13
2022-12-31T12:25:41.555Z,22.15
2022-12-31T12:28:20.582Z,22.17
2022-12-31T12:30:52.883Z,22.19
2022-12-31T12:33:19.856Z,22.23
2022-12-31T12:35:47.142Z,22.25
2022-12-31T12:38:15.404Z,22.26
2022-12-31T12:40:42.030Z,22.30
2022-12-31T12:43:21.933Z,22.35
2022-12-31T12:45:52.088Z,22.33
2022-12-31T12:48:21.790Z,22.34
2022-12-31T12:50:49.253Z,22.35
2022-12-31T12:53:18.621Z,22.32
2022-12-31T12:55:47.962Z,22.36
2022-12-31T12:58:23.690Z,22.37
2022-12-31T13:01:13.800Z,22.35
2022-12-31T13:03:59.936Z,22.31
2022-12-31T13:06:46.282Z,22.21
2022-12-31T13:09:31.422Z,22.26
2022-12-31T13:12:07.727Z,22.31
2022-12-31T13:14:44.245Z,22.27
2022-12-31T13:17:19.753Z,22.29
2022-12-31T13:20:06.628Z,22.28
2022-12-31T13:22:45.314Z,22.27
2022-12-31T13:25:27.441Z,22.23
2022-12-31T13:27:56.546Z,22.14
2022-12-31T13:30:30.838Z,22.22
2022-12-31T13:32:57.501Z,22.21
2022-12-31T13:35:34.853Z,22.21
2022-12-31T13:38:26.796Z,22.17
2022-12-31T13:41:00.895Z,22.20
2022-12-31T13:43:48.831Z,22.23
2022-12-31T13:46:26.427Z,22.23
2022-12-31T13:49:04.316Z,22.22
2022-12-31T13:51:34.007Z,22.23
2022-12-31T13:54:14.806Z,22.17
2022-12-31T13:56:42.738Z,22.19
2022-12-31T13:59:23.856Z,22.20
2022-12-31T14:02:00.681Z,22.18
2022-12-31T14:04:27.431Z,22.23
2022-12-31T14:07:00.329Z,22.24
2022-12-31T14:09:29.200Z,22.21
2022-12-31T14:12:14.342Z,22.18
2022-12-31T14:14:42.403Z,22.11
2022-12-31T14:17:27.580Z,22.14
2022-12-31T14:20:16.025Z,22.11
2022-12-31T14:22:59.485Z,22.10
2022-12-31T14:25:26.480Z,22.06
2022-12-31T14:27:55.198Z,22.04
2022-12-31T14:30:28.309Z,22.03
2022-12-31T14:33:01.629Z,22.01
2022-12-31T14:35:46.941Z,22.02
2022-12-31T14:38:16.719Z,22.00
2022-12-31T14:40:49.200Z,22.01
2022-12-31T14:43:15.870Z,22.01
2022-12-31T14:45:54.902Z,22.00
2022-12-31T14:48:40.345Z,21.92
2022-12-31T14:51:07.284Z,21.94
2022-12-31T14:53:33.916Z,21.92
2022-12-31T14:56:05.322Z,21.90
2022-12-31T14:58:34.744Z,21.89
2022-12-31T15:01:04.501Z,21.84
2022-12-31T15:03:31.144Z,21.84
2022-12-31T15:06:16.265Z,21.82
2022-12-31T15:08:49.282Z,21.81
2022-12-31T15:11:35.294Z,21.79
2022-12-31T15:14:20.460Z,21.78
2022-12-31T15:17:13.247Z,21.72
2022-12-31T15:20:11.437Z,21.68
2022-12-31T15:22:46.004Z,21.60
2022-12-31T15:25:21.627Z,21.55
2022-12-31T15:27:48.568Z,21.54
2022-12-31T15:30:34.079Z,21.51
2022-12-31T15:33:02.431Z,21.49
2022-12-31T15:35:43.564Z,21.45
2022-12-31T15:38:10.173Z,21.42
2022-12-31T15:40:50.698Z,21.40
2022-12-31T15:43:17.356Z,21.36
2022-12-31T15:45:44.169Z,21.33
2022-12-31T15:48:34.224Z,21.32
2022-12-31T15:51:01.274Z,21.27
2022-12-31T15:53:36.072Z,21.21
2022-12-31T15:56:03.174Z,21.18
2022-12-31T15:58:35.965Z,21.16
2022-12-31T16:01:09.875Z,21.13
2022-12-31T16:03:37.091Z,21.08
2022-12-31T16:06:08.519Z,21.07
2022-12-31T16:08:35.886Z,21.03
2022-12-31T16:11:07.018Z,20.98
2022-12-31T16:13:35.316Z,20.94
2022-12-31T16:16:03.405Z,20.87
2022-12-31T16:18:40.072Z,20.81
2022-12-31T16:21:22.411Z,20.74
2022-12-31T16:23:53.013Z,20.71
2022-12-31T16:26:20.024Z,20.67
2022-12-31T16:28:49.447Z,20.61
2022-12-31T16:31:22.721Z,20.54
2022-12-31T16:33:50.352Z,20.45
2022-12-31T16:36:23.571Z,20.40
2022-12-31T16:38:50.306Z,20.32
2022-12-31T16:41:19.009Z,20.29
2022-12-31T16:43:49.647Z,20.23
2022-12-31T16:46:25.512Z,20.12
2022-12-31T16:48:57.027Z,20.10
2022-12-31T16:51:28.997Z,20.05
2022-12-31T16:53:56.123Z,19.92
2022-12-31T16:56:24.843Z,19.88
2022-12-31T16:58:54.605Z,19.82
2022-12-31T17:01:25.012Z,19.72
2022-12-31T17:03:53.688Z,19.68
2022-12-31T17:06:20.849Z,19.63
2022-12-31T17:08:50.120Z,19.58
2022-12-31T17:11:23.191Z,19.52
2022-12-31T17:14:10.465Z,19.45
2022-12-31T17:16:38.615Z,19.36
2022-12-31T17:19:05.156Z,19.32
2022-12-31T17:21:32.461Z,19.31
2022-12-31T17:24:04.469Z,19.20
2022-12-31T17:26:32.493Z,19.15
2022-12-31T17:29:00.359Z,19.12
2022-12-31T17:31:34.717Z,19.07
2022-12-31T17:34:21.461Z,19.01
2022-12-31T17:37:00.082Z,18.96
2022-12-31T17:39:38.719Z,18.88
2022-12-31T17:42:05.510Z,18.85
2022-12-31T17:44:34.110Z,18.79
2022-12-31T17:47:02.484Z,18.77
2022-12-31T17:49:30.835Z,18.77
2022-12-31T17:51:57.636Z,18.73
2022-12-31T17:54:24.264Z,18.66
2022-12-31T17:56:51.913Z,18.65
2022-12-31T17:59:20.909Z,18.58
2022-12-31T18:01:47.782Z,18.61
2022-12-31T18:04:16.080Z,18.57
2022-12-31T18:06:43.116Z,18.52
2022-12-31T18:09:09.885Z,18.49
2022-12-31T18:11:37.722Z,18.44
2022-12-31T18:14:04.440Z,18.44
2022-12-31T18:16:31.084Z,18.43
2022-12-31T18:18:59.018Z,18.45
2022-12-31T18:21:28.690Z,18.41
2022-12-31T18:26:22.142Z,18.33
2022-12-31T18:28:48.875Z,18.32
2022-12-31T18:31:26.510Z,18.28
2022-12-31T18:33:53.896Z,18.26
2022-12-31T18:36:21.697Z,18.20
2022-12-31T18:38:48.526Z,18.23
2022-12-31T18:41:19.829Z,18.20
2022-12-31T18:43:46.799Z,18.16
2022-12-31T18:46:14.323Z,18.11
2022-12-31T18:48:41.539Z,18.11
2022-12-31T18:51:15.206Z,18.10
2022-12-31T18:53:41.883Z,18.04
2022-12-31T18:56:12.950Z,18.04
2022-12-31T18:58:39.737Z,17.99
2022-12-31T19:01:09.810Z,17.93
2022-12-31T19:03:36.485Z,17.91
2022-12-31T19:06:03.078Z,17.85
2022-12-31T19:08:29.705Z,17.80
2022-12-31T19:10:56.290Z,17.80
2022-12-31T19:13:23.363Z,17.81
2022-12-31T19:15:51.135Z,17.88
2022-12-31T19:18:17.732Z,17.82
2022-12-31T19:20:44.548Z,17.85
2022-12-31T19:23:19.448Z,17.80
2022-12-31T19:25:47.040Z,17.73
2022-12-31T19:28:15.908Z,17.71
2022-12-31T19:30:42.613Z,17.68
2022-12-31T19:33:09.188Z,17.67
2022-12-31T19:35:35.921Z,17.66
2022-12-31T19:38:02.799Z,17.67
2022-12-31T19:40:30.653Z,17.66
2022-12-31T19:42:57.855Z,17.68
2022-12-31T19:45:26.226Z,17.75
2022-12-31T19:47:53.587Z,17.69
2022-12-31T19:50:22.120Z,17.68
2022-12-31T19:52:49.646Z,17.65
2022-12-31T19:55:18.668Z,17.62
2022-12-31T19:57:45.517Z,17.57
2022-12-31T20:00:14.324Z,17.56
2022-12-31T20:02:41.631Z,17.54
2022-12-31T20:05:08.592Z,17.52
2022-12-31T20:07:35.184Z,17.49
2022-12-31T20:10:01.960Z,17.46
2022-12-31T20:12:28.644Z,17.42
2022-12-31T20:14:55.441Z,17.41
2022-12-31T20:17:22.173Z,17.22
2022-12-31T20:19:48.807Z,17.15
2022-12-31T20:22:15.329Z,17.13
2022-12-31T20:24:41.963Z,17.09
2022-12-31T20:27:10.976Z,17.07
2022-12-31T20:29:41.596Z,17.06
2022-12-31T20:32:09.701Z,16.97
2022-12-31T20:34:36.367Z,16.95
2022-12-31T20:37:02.934Z,16.91
2022-12-31T20:39:29.529Z,16.91
2022-12-31T20:41:56.139Z,16.89
2022-12-31T20:44:22.792Z,16.82
2022-12-31T20:46:49.445Z,16.82
2022-12-31T20:49:16.060Z,16.78
2022-12-31T20:51:45.019Z,16.76
2022-12-31T20:54:15.517Z,16.76
2022-12-31T20:56:42.112Z,16.71
2022-12-31T20:59:09.437Z,16.69
2022-12-31T21:02:11.809Z,16.66
2022-12-31T21:04:23.218Z,16.62
2022-12-31T21:06:49.914Z,16.58
2022-12-31T21:09:16.501Z,16.57
2022-12-31T21:12:01.551Z,16.54
2022-12-31T21:14:28.125Z,16.42
2022-12-31T21:16:54.661Z,16.46
2022-12-31T21:19:21.278Z,16.41
2022-12-31T21:21:48.338Z,16.30
2022-12-31T21:24:20.194Z,16.26
2022-12-31T21:26:50.040Z,16.35
2022-12-31T21:29:16.600Z,16.24
2022-12-31T21:31:43.224Z,16.24
2022-12-31T21:34:10.035Z,16.21
2022-12-31T21:36:36.671Z,16.22
2022-12-31T21:39:03.683Z,16.26
2022-12-31T21:41:48.976Z,16.23
2022-12-31T21:44:15.608Z,16.29
2022-12-31T21:47:00.799Z,16.19
2022-12-31T21:49:28.747Z,15.98
2022-12-31T21:52:13.705Z,15.90
2022-12-31T21:54:59.098Z,15.89
2022-12-31T21:57:25.678Z,15.70
2022-12-31T22:00:40.485Z,15.67
2022-12-31T22:03:16.211Z,15.52
2022-12-31T22:05:50.852Z,15.42
2022-12-31T22:08:17.712Z,15.49
2022-12-31T22:10:51.966Z,15.55
2022-12-31T22:13:20.076Z,15.58
2022-12-31T22:15:47.546Z,15.57
2022-12-31T22:18:14.889Z,15.57
2022-12-31T22:20:41.739Z,15.56
2022-12-31T22:23:08.321Z,15.57
2022-12-31T22:25:35.354Z,15.49
2022-12-31T22:28:36.645Z,15.48
2022-12-31T22:30:49.500Z,15.29
2022-12-31T22:33:16.081Z,15.36
2022-12-31T22:35:42.672Z,15.32
2022-12-31T22:38:12.132Z,15.32
2022-12-31T22:40:39.369Z,15.33
2022-12-31T22:43:05.944Z,15.36
2022-12-31T22:45:32.574Z,15.10
2022-12-31T22:47:59.096Z,15.14
2022-12-31T22:50:25.718Z,15.20
2022-12-31T22:52:52.309Z,15.09
2022-12-31T22:55:18.932Z,15.09
2022-12-31T22:57:45.486Z,14.98
2022-12-31T23:00:13.285Z,14.97
2022-12-31T23:02:41.943Z,14.77
2022-12-31T23:05:15.514Z,14.90
2022-12-31T23:07:43.130Z,14.84
2022-12-31T23:10:29.010Z,14.79
2022-12-31T23:12:55.605Z,14.82
2022-12-31T23:15:40.601Z,14.84
2022-12-31T23:18:25.616Z,14.94
2022-12-31T23:21:10.953Z,14.85
2022-12-31T23:23:37.578Z,14.81
2022-12-31T23:26:04.156Z,14.83
2022-12-31T23:28:30.769Z,14.71
2022-12-31T23:30:57.385Z,14.64
2022-12-31T23:33:25.202Z,14.43
2022-12-31T23:36:01.405Z,14.58
2022-12-31T23:38:28.035Z,14.66
2022-12-31T23:40:54.598Z,14.62
2022-12-31T23:43:22.304Z,14.51
2022-12-31T23:45:50.404Z,14.58
2022-12-31T23:48:17.057Z,14.60
2022-12-31T23:50:47.709Z,14.51
2022-12-31T23:53:17.550Z,14.23
2022-12-31T23:55:44.116Z,14.04
2022-12-31T23:58:10.701Z,14.18
